Time;durP1;ratioP1;P1;durP2;ratioP2;P2;SDS_P1;SDS_P2;PMS_P1;PMS_P2;Temp;Humidity;BMP_temperature;BMP_pressure;BME280_temperature;BME280_humidity;BME280_pressure;Samples;Min_cycle;Max_cycle;Signal;HPM_P1;HPM_P2
2022/04/07 00:01:21;;;;;;;4.70;3.25;;;;;;;;;;5056318;28;20167;-67
2022/04/07 00:03:47;;;;;;;6.15;3.00;;;;;;;;;;5055186;28;20139;-68
2022/04/07 00:06:14;;;;;;;5.10;3.28;;;;;;;;;;5054391;28;20139;-67
2022/04/07 00:08:41;;;;;;;6.60;2.65;;;;;;;;;;5053336;28;20052;-68
2022/04/07 00:11:08;;;;;;;3.83;3.00;;;;;;;;;;5056046;28;20044;-68
2022/04/07 00:13:34;;;;;;;3.88;2.47;;;;;;;;;;5057385;28;20049;-68
2022/04/07 00:16:08;;;;;;;5.72;2.83;;;;;;;;;;5053898;28;20861;-68
2022/04/07 00:18:35;;;;;;;3.95;3.05;;;;;;;;;;5054687;28;20079;-68
2022/04/07 00:21:06;;;;;;;4.10;3.08;;;;;;;;;;5055401;28;20066;-68
2022/04/07 00:23:33;;;;;;;4.60;3.08;;;;;;;;;;5053951;28;20064;-68
2022/04/07 00:25:59;;;;;;;4.93;2.97;;;;;;;;;;5057688;28;20139;-68
2022/04/07 00:28:26;;;;;;;5.37;3.07;;;;;;;;;;5059270;28;20497;-68
2022/04/07 00:30:52;;;;;;;6.05;2.85;;;;;;;;;;5057532;28;20494;-68
2022/04/07 00:33:19;;;;;;;6.00;3.38;;;;;;;;;;5061303;28;20150;-67
2022/04/07 00:35:45;;;;;;;5.47;3.10;;;;;;;;;;5057483;28;20131;-68
2022/04/07 00:38:12;;;;;;;5.30;3.03;;;;;;;;;;5059858;28;20041;-68
2022/04/07 00:40:38;;;;;;;7.20;2.83;;;;;;;;;;5059758;28;20045;-68
2022/04/07 00:43:05;;;;;;;4.07;2.85;;;;;;;;;;5036636;28;20298;-67
2022/04/07 00:45:32;;;;;;;3.65;2.92;;;;;;;;;;5058528;28;20135;-68
2022/04/07 00:47:59;;;;;;;5.22;3.17;;;;;;;;;;5057608;28;20052;-67
2022/04/07 00:50:26;;;;;;;7.95;3.30;;;;;;;;;;5059353;28;20076;-68
2022/04/07 00:52:57;;;;;;;6.50;3.97;;;;;;;;;;5056653;28;20148;-67
2022/04/07 00:55:24;;;;;;;8.63;3.50;;;;;;;;;;5058601;28;20076;-68
2022/04/07 00:57:51;;;;;;;12.60;3.40;;;;;;;;;;5058256;28;20080;-67
2022/04/07 01:00:18;;;;;;;5.40;3.80;;;;;;;;;;5060241;28;20072;-68
2022/04/07 01:02:44;;;;;;;9.00;3.53;;;;;;;;;;5059305;28;20080;-68
2022/04/07 01:05:14;;;;;;;9.27;4.00;;;;;;;;;;5056693;28;20052;-67
2022/04/07 01:07:42;;;;;;;6.07;4.00;;;;;;;;;;5058571;28;20052;-68
2022/04/07 01:10:08;;;;;;;9.32;3.90;;;;;;;;;;5057904;28;20129;-69
2022/04/07 01:12:37;;;;;;;10.32;4.55;;;;;;;;;;5058588;28;20048;-68
2022/04/07 01:15:05;;;;;;;7.10;4.15;;;;;;;;;;5057535;28;20150;-68
2022/04/07 01:17:31;;;;;;;11.90;4.38;;;;;;;;;;5056555;28;20143;-68
2022/04/07 01:19:58;;;;;;;6.95;4.20;;;;;;;;;;5062052;28;20131;-68
2022/04/07 01:22:24;;;;;;;14.52;4.30;;;;;;;;;;5058134;28;20127;-68
2022/04/07 01:24:52;;;;;;;8.57;4.50;;;;;;;;;;5055694;28;20139;-68
2022/04/07 01:27:19;;;;;;;11.73;5.00;;;;;;;;;;5057076;28;20052;-68
2022/04/07 01:29:46;;;;;;;8.88;4.35;;;;;;;;;;5058600;28;20059;-68
2022/04/07 01:32:19;;;;;;;19.65;4.82;;;;;;;;;;5059808;28;20141;-68
2022/04/07 01:34:45;;;;;;;15.35;5.13;;;;;;;;;;5054497;28;20404;-68
2022/04/07 01:37:12;;;;;;;11.27;4.63;;;;;;;;;;5055966;28;20159;-68
2022/04/07 01:39:41;;;;;;;14.52;4.72;;;;;;;;;;5058092;28;20143;-68
2022/04/07 01:42:08;;;;;;;9.80;5.20;;;;;;;;;;5056944;28;20128;-68
2022/04/07 01:44:38;;;;;;;11.95;4.55;;;;;;;;;;5056855;28;20139;-68
2022/04/07 01:47:05;;;;;;;13.38;5.10;;;;;;;;;;5057531;28;20143;-68
2022/04/07 01:49:34;;;;;;;18.60;5.28;;;;;;;;;;5057426;28;20140;-68
2022/04/07 01:52:02;;;;;;;22.10;5.00;;;;;;;;;;5059201;28;20135;-68
2022/04/07 01:54:28;;;;;;;;;;;;;;;;;;5057309;28;20164;-68
2022/04/07 01:56:56;;;;;;;11.65;4.60;;;;;;;;;;5037778;28;20019;-68
2022/04/07 01:59:22;;;;;;;14.88;5.57;;;;;;;;;;5057312;28;20132;-67
2022/04/07 02:01:50;;;;;;;;;;;;;;;;;;5057165;28;20510;-68
2022/04/07 02:04:16;;;;;;;21.95;5.38;;;;;;;;;;5058895;28;20050;-68
2022/04/07 02:06:43;;;;;;;39.92;5.63;;;;;;;;;;5057550;28;20041;-68
2022/04/07 02:09:10;;;;;;;21.40;5.65;;;;;;;;;;5056809;28;20058;-68
2022/04/07 02:11:36;;;;;;;34.40;5.20;;;;;;;;;;5054995;28;20140;-68
2022/04/07 02:14:03;;;;;;;28.25;5.63;;;;;;;;;;5056477;28;20485;-68
2022/04/07 02:16:30;;;;;;;26.63;5.57;;;;;;;;;;5055915;28;20058;-68
2022/04/07 02:18:57;;;;;;;18.30;5.65;;;;;;;;;;5054860;28;20048;-68
2022/04/07 02:21:23;;;;;;;30.75;6.60;;;;;;;;;;5056754;28;20048;-68
2022/04/07 02:23:51;;;;;;;48.83;6.53;;;;;;;;;;5056442;28;20187;-68
2022/04/07 02:26:19;;;;;;;27.77;6.10;;;;;;;;;;5057002;28;20050;-68
2022/04/07 02:28:45;;;;;;;39.42;5.68;;;;;;;;;;5060745;28;20135;-68
2022/04/07 02:31:18;;;;;;;32.75;5.82;;;;;;;;;;5061592;28;20072;-68
2022/04/07 02:33:46;;;;;;;52.67;7.13;;;;;;;;;;5060738;28;20084;-68
2022/04/07 02:36:14;;;;;;;40.92;6.13;;;;;;;;;;5061540;28;20651;-67
2022/04/07 02:38:42;;;;;;;34.40;6.25;;;;;;;;;;5057810;28;20132;-68
2022/04/07 02:41:08;;;;;;;54.78;7.55;;;;;;;;;;5063719;28;20045;-68
2022/04/07 02:43:35;;;;;;;71.93;8.23;;;;;;;;;;5062228;28;20087;-68
2022/04/07 02:46:04;;;;;;;93.07;9.00;;;;;;;;;;5057879;28;20083;-67
2022/04/07 02:48:31;;;;;;;53.22;7.60;;;;;;;;;;5056314;28;20075;-68
2022/04/07 02:50:57;;;;;;;62.75;8.57;;;;;;;;;;5056337;28;20147;-68
2022/04/07 02:53:25;;;;;;;72.28;7.30;;;;;;;;;;5062604;28;20091;-68
2022/04/07 02:55:51;;;;;;;81.70;7.75;;;;;;;;;;5061859;28;20049;-68
2022/04/07 02:58:18;;;;;;;292.67;15.95;;;;;;;;;;5062297;28;20056;-68
2022/04/07 03:00:51;;;;;;;311.42;16.02;;;;;;;;;;5054714;28;20480;-67
2022/04/07 03:03:17;;;;;;;54.58;6.93;;;;;;;;;;5056496;28;20140;-68
2022/04/07 03:05:44;;;;;;;159.40;12.37;;;;;;;;;;5056700;28;20044;-68
2022/04/07 03:08:12;;;;;;;46.38;7.65;;;;;;;;;;5059198;28;20147;-68
2022/04/07 03:10:39;;;;;;;101.47;10.02;;;;;;;;;;5060599;28;20076;-68
2022/04/07 03:13:05;;;;;;;33.50;7.45;;;;;;;;;;5059826;28;20163;-67
2022/04/07 03:15:32;;;;;;;81.50;9.27;;;;;;;;;;5057366;28;20127;-68
2022/04/07 03:17:59;;;;;;;114.67;9.47;;;;;;;;;;5054971;28;20044;-68
2022/04/07 03:20:25;;;;;;;59.33;8.32;;;;;;;;;;5057019;28;20415;-67
2022/04/07 03:22:54;;;;;;;100.38;10.65;;;;;;;;;;5059187;28;20152;-68
2022/04/07 03:25:21;;;;;;;76.90;9.70;;;;;;;;;;5057084;28;20144;-68
2022/04/07 03:27:47;;;;;;;79.43;8.60;;;;;;;;;;5060625;28;20195;-68
2022/04/07 03:30:14;;;;;;;72.05;8.45;;;;;;;;;;5057736;28;20091;-68
2022/04/07 03:32:41;;;;;;;76.23;8.67;;;;;;;;;;5063313;28;20092;-68
2022/04/07 03:35:08;;;;;;;56.25;7.68;;;;;;;;;;5061517;28;20044;-68
2022/04/07 03:37:35;;;;;;;;;;;;;;;;;;5059104;28;20083;-68
2022/04/07 03:40:02;;;;;;;66.20;8.63;;;;;;;;;;5058038;28;20007;-68
2022/04/07 03:42:28;;;;;;;59.92;8.43;;;;;;;;;;5059864;28;20562;-68
2022/04/07 03:45:01;;;;;;;53.67;8.20;;;;;;;;;;5060530;28;20098;-68
2022/04/07 03:47:29;;;;;;;42.55;8.07;;;;;;;;;;5055517;28;20144;-68
2022/04/07 03:49:55;;;;;;;40.58;8.05;;;;;;;;;;5058985;28;20140;-68
2022/04/07 03:52:22;;;;;;;67.93;8.88;;;;;;;;;;5059194;28;20139;-68
2022/04/07 03:54:50;;;;;;;33.13;8.18;;;;;;;;;;5058797;28;20075;-68
2022/04/07 03:57:16;;;;;;;34.28;8.88;;;;;;;;;;5062263;28;20052;-68
2022/04/07 03:59:43;;;;;;;33.93;8.93;;;;;;;;;;5060476;28;20155;-68
2022/04/07 04:02:10;;;;;;;41.25;8.05;;;;;;;;;;5057998;28;20290;-68
2022/04/07 04:04:37;;;;;;;45.20;9.73;;;;;;;;;;5055631;28;20064;-67
2022/04/07 04:07:10;;;;;;;38.53;8.35;;;;;;;;;;5054458;28;20080;-68
2022/04/07 04:09:36;;;;;;;37.05;8.70;;;;;;;;;;5058182;28;20080;-68
2022/04/07 04:12:03;;;;;;;40.00;8.82;;;;;;;;;;5060083;28;20127;-67
2022/04/07 04:14:30;;;;;;;60.83;9.50;;;;;;;;;;5059691;28;20080;-68
2022/04/07 04:16:57;;;;;;;54.78;9.98;;;;;;;;;;5058955;28;20110;-68
2022/04/07 04:19:24;;;;;;;51.63;8.88;;;;;;;;;;5063705;28;20087;-68
2022/04/07 04:21:53;;;;;;;50.97;9.73;;;;;;;;;;5059890;28;20087;-68
2022/04/07 04:24:20;;;;;;;34.65;9.25;;;;;;;;;;5057298;28;20515;-68
2022/04/07 04:26:46;;;;;;;27.38;9.15;;;;;;;;;;5059280;28;20414;-68
2022/04/07 04:29:22;;;;;;;44.40;10.23;;;;;;;;;;5057905;28;20052;-67
2022/04/07 04:31:49;;;;;;;66.28;10.23;;;;;;;;;;5054828;28;20924;-68
2022/04/07 04:34:15;;;;;;;40.03;6.50;;;;;;;;;;5060990;28;20061;-68
2022/04/07 04:36:42;;;;;;;37.75;8.35;;;;;;;;;;5061207;28;20047;-68
2022/04/07 04:39:09;;;;;;;44.80;8.90;;;;;;;;;;5060328;28;20139;-67
2022/04/07 04:41:35;;;;;;;46.53;8.98;;;;;;;;;;5058049;28;20083;-68
2022/04/07 04:44:08;;;;;;;41.47;9.45;;;;;;;;;;5057616;28;20143;-67
2022/04/07 04:46:35;;;;;;;50.75;9.55;;;;;;;;;;5061358;28;20083;-68
2022/04/07 04:49:01;;;;;;;32.67;9.02;;;;;;;;;;5058268;28;20052;-68
2022/04/07 04:51:28;;;;;;;28.35;9.10;;;;;;;;;;5055836;28;20148;-68
2022/04/07 04:53:55;;;;;;;26.13;9.27;;;;;;;;;;5055393;28;20480;-68
2022/04/07 04:56:21;;;;;;;30.90;9.07;;;;;;;;;;5057504;28;20135;-68
2022/04/07 04:58:48;;;;;;;23.27;8.40;;;;;;;;;;5057309;28;20079;-68
2022/04/07 05:01:15;;;;;;;25.50;8.13;;;;;;;;;;5059363;28;20562;-68
2022/04/07 05:03:41;;;;;;;26.10;8.77;;;;;;;;;;5045368;28;20073;-68
2022/04/07 05:06:14;;;;;;;21.85;8.05;;;;;;;;;;5058873;28;20584;-67
2022/04/07 05:08:41;;;;;;;22.63;8.13;;;;;;;;;;5058728;28;20169;-67
2022/04/07 05:11:07;;;;;;;30.48;8.95;;;;;;;;;;5056425;28;20076;-67
2022/04/07 05:13:34;;;;;;;29.80;9.73;;;;;;;;;;5063302;28;20080;-67
2022/04/07 05:16:00;;;;;;;24.30;8.17;;;;;;;;;;5059257;28;20144;-68
2022/04/07 05:18:27;;;;;;;18.40;7.78;;;;;;;;;;5063320;28;20873;-68
2022/04/07 05:21:00;;;;;;;15.80;7.30;;;;;;;;;;5061113;28;20049;-68
2022/04/07 05:23:27;;;;;;;15.52;7.07;;;;;;;;;;5061349;28;20089;-68
2022/04/07 05:25:53;;;;;;;18.40;7.50;;;;;;;;;;5061824;28;20079;-67
2022/04/07 05:28:21;;;;;;;17.08;7.90;;;;;;;;;;5061915;28;20094;-68
2022/04/07 05:30:47;;;;;;;;;;;;;;;;;;5062366;28;20077;-67
2022/04/07 05:33:15;;;;;;;16.25;6.10;;;;;;;;;;5057862;28;20016;-67
2022/04/07 05:35:48;;;;;;;13.20;6.45;;;;;;;;;;5060484;28;20140;-67
2022/04/07 05:38:15;;;;;;;16.00;7.72;;;;;;;;;;5061120;28;20052;-67
2022/04/07 05:40:42;;;;;;;14.40;7.03;;;;;;;;;;5061371;28;20137;-67
2022/04/07 05:43:09;;;;;;;13.70;6.32;;;;;;;;;;5063441;28;20136;-67
2022/04/07 05:45:38;;;;;;;13.65;7.45;;;;;;;;;;5062288;28;20087;-67
2022/04/07 05:48:05;;;;;;;12.18;6.70;;;;;;;;;;5055351;28;20049;-67
2022/04/07 05:50:32;;;;;;;14.90;5.95;;;;;;;;;;5059687;28;20056;-67
2022/04/07 05:52:58;;;;;;;11.90;6.22;;;;;;;;;;5061222;28;20181;-67
2022/04/07 05:55:26;;;;;;;13.60;5.25;;;;;;;;;;5059955;28;20401;-67
2022/04/07 05:57:52;;;;;;;12.82;6.35;;;;;;;;;;5059981;28;20447;-67
2022/04/07 06:00:19;;;;;;;14.05;6.30;;;;;;;;;;5063219;28;20106;-67
2022/04/07 06:02:47;;;;;;;16.23;6.68;;;;;;;;;;5059714;28;20799;-66
2022/04/07 06:05:16;;;;;;;10.70;5.63;;;;;;;;;;5062637;28;20048;-67
2022/04/07 06:07:44;;;;;;;10.50;6.47;;;;;;;;;;5059591;28;20405;-67
2022/04/07 06:10:14;;;;;;;12.82;6.32;;;;;;;;;;5063738;28;20058;-67
2022/04/07 06:12:42;;;;;;;13.63;6.60;;;;;;;;;;5059925;28;20131;-67
2022/04/07 06:15:10;;;;;;;14.43;6.07;;;;;;;;;;5058182;28;20056;-67
2022/04/07 06:17:47;;;;;;;26.88;6.88;;;;;;;;;;5057783;28;20076;-67
2022/04/07 06:20:13;;;;;;;11.93;6.32;;;;;;;;;;5060180;28;20053;-67
2022/04/07 06:22:41;;;;;;;9.00;6.03;;;;;;;;;;5058756;28;20128;-67
2022/04/07 06:25:14;;;;;;;13.75;5.60;;;;;;;;;;5062865;28;20087;-67
2022/04/07 06:27:41;;;;;;;21.30;5.72;;;;;;;;;;5055454;28;20614;-67
2022/04/07 06:30:17;;;;;;;10.55;5.38;;;;;;;;;;5056830;28;20080;-66
2022/04/07 06:32:45;;;;;;;8.43;5.28;;;;;;;;;;5060449;28;20103;-67
2022/04/07 06:35:12;;;;;;;8.63;4.85;;;;;;;;;;5058316;28;20128;-67
2022/04/07 06:37:46;;;;;;;9.20;5.25;;;;;;;;;;5059301;28;20044;-66
2022/04/07 06:40:12;;;;;;;8.40;5.10;;;;;;;;;;5054613;28;20478;-67
2022/04/07 06:42:41;;;;;;;9.65;4.82;;;;;;;;;;5059473;28;20401;-67
2022/04/07 06:45:08;;;;;;;8.95;4.68;;;;;;;;;;5061521;28;20084;-67
2022/04/07 06:47:38;;;;;;;15.57;5.47;;;;;;;;;;5059463;28;20136;-67
2022/04/07 06:50:06;;;;;;;19.67;4.60;;;;;;;;;;5059993;28;20164;-67
2022/04/07 06:52:33;;;;;;;7.47;4.57;;;;;;;;;;5059085;28;20123;-68
2022/04/07 06:54:59;;;;;;;8.52;3.22;;;;;;;;;;5059217;28;20088;-68
2022/04/07 06:57:26;;;;;;;17.87;4.33;;;;;;;;;;5053097;28;20080;-67
2022/04/07 06:59:53;;;;;;;6.65;4.32;;;;;;;;;;5063618;28;20287;-68
2022/04/07 07:02:19;;;;;;;5.17;3.30;;;;;;;;;;5058904;28;20087;-68
2022/04/07 07:04:57;;;;;;;10.10;4.35;;;;;;;;;;5056877;28;20504;-68
2022/04/07 07:07:24;;;;;;;7.07;3.10;;;;;;;;;;5062502;28;20080;-69
2022/04/07 07:09:50;;;;;;;12.95;3.92;;;;;;;;;;5053027;28;20088;-68
2022/04/07 07:12:23;;;;;;;5.90;3.92;;;;;;;;;;5059063;28;20080;-68
2022/04/07 07:14:49;;;;;;;7.63;3.78;;;;;;;;;;5055720;28;20128;-68
2022/04/07 07:17:16;;;;;;;7.70;4.00;;;;;;;;;;5059151;28;20132;-69
2022/04/07 07:19:42;;;;;;;10.93;3.40;;;;;;;;;;5055821;28;20136;-68
2022/04/07 07:22:09;;;;;;;5.78;3.40;;;;;;;;;;5056623;28;20072;-69
2022/04/07 07:24:35;;;;;;;7.85;3.95;;;;;;;;;;5061877;28;20893;-69
2022/04/07 07:27:02;;;;;;;10.15;3.35;;;;;;;;;;5059980;28;20103;-68
2022/04/07 07:29:29;;;;;;;9.25;3.58;;;;;;;;;;5057861;28;20052;-69
2022/04/07 07:31:55;;;;;;;5.05;3.35;;;;;;;;;;5057133;28;20068;-70
2022/04/07 07:34:28;;;;;;;4.10;3.20;;;;;;;;;;5055904;28;20075;-70
2022/04/07 07:36:55;;;;;;;8.10;3.60;;;;;;;;;;5061349;28;20136;-69
2022/04/07 07:39:26;;;;;;;10.18;3.83;;;;;;;;;;5058535;28;20058;-69
2022/04/07 07:41:59;;;;;;;5.53;3.55;;;;;;;;;;5056276;28;20080;-69
2022/04/07 07:44:26;;;;;;;4.30;3.25;;;;;;;;;;5058146;28;20495;-68
2022/04/07 07:46:52;;;;;;;7.80;3.35;;;;;;;;;;5061055;28;20092;-68
2022/04/07 07:49:20;;;;;;;4.15;3.33;;;;;;;;;;5059166;28;20144;-68
2022/04/07 07:51:47;;;;;;;8.50;3.72;;;;;;;;;;5036091;28;20091;-67
2022/04/07 07:54:15;;;;;;;4.38;3.05;;;;;;;;;;5040299;28;20049;-67
2022/04/07 07:56:41;;;;;;;14.90;4.18;;;;;;;;;;5039093;28;20167;-67
2022/04/07 07:59:08;;;;;;;5.32;3.78;;;;;;;;;;5037543;28;20137;-68
2022/04/07 08:01:37;;;;;;;8.25;3.55;;;;;;;;;;5038749;28;20137;-67
2022/04/07 08:04:04;;;;;;;5.30;4.00;;;;;;;;;;5036711;28;20132;-67
2022/04/07 08:06:32;;;;;;;4.78;3.53;;;;;;;;;;5036170;28;20049;-68
2022/04/07 08:08:58;;;;;;;13.10;3.20;;;;;;;;;;5036919;28;20053;-67
2022/04/07 08:11:25;;;;;;;6.88;3.25;;;;;;;;;;5038174;28;20128;-67
2022/04/07 08:13:51;;;;;;;5.70;3.40;;;;;;;;;;5032150;28;20144;-68
2022/04/07 08:16:18;;;;;;;5.20;3.20;;;;;;;;;;5038165;28;20045;-68
2022/04/07 08:18:46;;;;;;;4.20;2.97;;;;;;;;;;5035216;28;20045;-68
2022/04/07 08:21:12;;;;;;;4.40;3.35;;;;;;;;;;5036075;28;20107;-69
2022/04/07 08:23:39;;;;;;;5.45;3.60;;;;;;;;;;5038293;28;20150;-68
2022/04/07 08:26:05;;;;;;;6.05;3.50;;;;;;;;;;5037814;28;20575;-68
2022/04/07 08:28:32;;;;;;;5.55;3.63;;;;;;;;;;5035738;28;20134;-68
2022/04/07 08:31:00;;;;;;;5.50;3.28;;;;;;;;;;5042636;28;20136;-68
2022/04/07 08:33:27;;;;;;;7.10;3.35;;;;;;;;;;5038023;28;20057;-68
2022/04/07 08:35:54;;;;;;;4.93;2.90;;;;;;;;;;5039704;28;20481;-68
2022/04/07 08:38:27;;;;;;;4.75;3.17;;;;;;;;;;5033881;28;20128;-68
2022/04/07 08:40:54;;;;;;;5.32;3.65;;;;;;;;;;5039984;28;20081;-68
2022/04/07 08:43:21;;;;;;;5.50;3.28;;;;;;;;;;5038771;28;20054;-67
2022/04/07 08:45:54;;;;;;;4.93;3.05;;;;;;;;;;5037963;28;20087;-68
2022/04/07 08:48:21;;;;;;;5.67;3.37;;;;;;;;;;5037533;28;20045;-68
2022/04/07 08:50:49;;;;;;;5.93;3.20;;;;;;;;;;5055221;28;20083;-68
2022/04/07 08:53:16;;;;;;;5.45;3.10;;;;;;;;;;5060279;28;20072;-67
2022/04/07 08:55:42;;;;;;;8.52;3.20;;;;;;;;;;5043656;28;20530;-68
2022/04/07 08:58:10;;;;;;;6.22;3.00;;;;;;;;;;5060793;28;20500;-67
2022/04/07 09:00:44;;;;;;;5.63;3.50;;;;;;;;;;5061610;28;20543;-68
2022/04/07 09:03:11;;;;;;;5.80;2.92;;;;;;;;;;5062245;28;20057;-68
2022/04/07 09:05:50;;;;;;;4.57;3.10;;;;;;;;;;5061180;28;20045;-68
2022/04/07 09:08:18;;;;;;;5.45;3.15;;;;;;;;;;5060055;28;20044;-68
2022/04/07 09:10:52;;;;;;;3.75;2.30;;;;;;;;;;5058434;28;20631;-68
2022/04/07 09:13:19;;;;;;;5.10;3.13;;;;;;;;;;5062439;28;20124;-68
2022/04/07 09:15:45;;;;;;;6.78;2.97;;;;;;;;;;5057672;28;20797;-66
2022/04/07 09:18:12;;;;;;;6.00;2.92;;;;;;;;;;5062149;28;20151;-67
2022/04/07 09:20:41;;;;;;;4.07;2.90;;;;;;;;;;5062539;28;20073;-66
2022/04/07 09:23:10;;;;;;;5.57;2.92;;;;;;;;;;5059360;28;20076;-67
2022/04/07 09:25:41;;;;;;;5.68;2.97;;;;;;;;;;5059843;28;20139;-65
2022/04/07 09:28:30;;;;;;;4.50;3.33;;;;;;;;;;5062622;28;20053;-66
2022/04/07 09:30:59;;;;;;;5.10;2.80;;;;;;;;;;5058536;28;20658;-65
2022/04/07 09:33:27;;;;;;;7.88;3.30;;;;;;;;;;5057964;28;20488;-65
2022/04/07 09:36:19;;;;;;;4.45;2.63;;;;;;;;;;5060184;28;20208;-65
2022/04/07 09:38:53;;;;;;;5.40;3.00;;;;;;;;;;5061553;28;20520;-65
2022/04/07 09:41:20;;;;;;;3.28;2.30;;;;;;;;;;5059876;28;20053;-65
2022/04/07 09:43:59;;;;;;;4.10;2.72;;;;;;;;;;5061426;28;20450;-65
2022/04/07 09:46:31;;;;;;;4.47;2.97;;;;;;;;;;5058744;28;20685;-66
2022/04/07 09:49:03;;;;;;;4.80;2.95;;;;;;;;;;5059367;28;20608;-65
2022/04/07 09:51:30;;;;;;;4.22;2.92;;;;;;;;;;5058322;28;20562;-65
2022/04/07 09:53:57;;;;;;;5.22;3.38;;;;;;;;;;5064528;28;20052;-65
2022/04/07 09:56:26;;;;;;;6.07;3.13;;;;;;;;;;5060314;28;20111;-65
2022/04/07 09:58:53;;;;;;;4.53;3.13;;;;;;;;;;5060139;28;20140;-65
2022/04/07 10:01:19;;;;;;;5.40;3.25;;;;;;;;;;5059193;28;20044;-65
2022/04/07 10:03:52;;;;;;;8.93;3.63;;;;;;;;;;5057782;28;20433;-65
2022/04/07 10:06:20;;;;;;;5.65;3.22;;;;;;;;;;5058939;28;20136;-65
2022/04/07 10:08:46;;;;;;;6.07;3.55;;;;;;;;;;5059711;28;20609;-65
2022/04/07 10:11:19;;;;;;;7.05;3.67;;;;;;;;;;5056713;28;20831;-65
2022/04/07 10:13:53;;;;;;;5.13;3.50;;;;;;;;;;5056519;28;20087;-65
2022/04/07 10:16:41;;;;;;;5.93;3.67;;;;;;;;;;5060374;28;20074;-65
2022/04/07 10:19:18;;;;;;;6.78;3.60;;;;;;;;;;5060103;28;20049;-65
2022/04/07 10:22:03;;;;;;;5.10;3.42;;;;;;;;;;5058283;28;20168;-65
2022/04/07 10:24:30;;;;;;;6.47;3.90;;;;;;;;;;5059289;28;20067;-65
2022/04/07 10:27:19;;;;;;;5.18;3.50;;;;;;;;;;5058731;28;20063;-65
2022/04/07 10:30:06;;;;;;;5.90;2.92;;;;;;;;;;5055405;28;20140;-65
2022/04/07 10:32:36;;;;;;;4.68;3.20;;;;;;;;;;5059707;28;20143;-65
2022/04/07 10:35:03;;;;;;;6.93;2.88;;;;;;;;;;5059968;28;20553;-66
2022/04/07 10:37:30;;;;;;;3.73;2.90;;;;;;;;;;5061820;28;20052;-65
2022/04/07 10:40:21;;;;;;;5.85;3.05;;;;;;;;;;5058226;28;20286;-65
2022/04/07 10:43:06;;;;;;;4.25;2.83;;;;;;;;;;5064388;28;20554;-65
2022/04/07 10:45:34;;;;;;;3.25;2.67;;;;;;;;;;5061933;28;20108;-66
2022/04/07 10:48:19;;;;;;;4.38;2.63;;;;;;;;;;5057785;28;20045;-66
2022/04/07 10:50:49;;;;;;;3.45;2.50;;;;;;;;;;5060839;28;20504;-66
2022/04/07 10:53:23;;;;;;;2.85;2.25;;;;;;;;;;5055225;28;20087;-66
2022/04/07 10:55:56;;;;;;;2.80;2.17;;;;;;;;;;5059766;28;20107;-66
2022/04/07 10:58:38;;;;;;;3.28;2.58;;;;;;;;;;5060659;28;20076;-66
2022/04/07 11:01:33;;;;;;;5.28;2.65;;;;;;;;;;5059931;28;20077;-66
2022/04/07 11:04:20;;;;;;;4.07;2.95;;;;;;;;;;5056528;28;20060;-66
2022/04/07 11:07:09;;;;;;;2.25;1.60;;;;;;;;;;5057039;28;20419;-66
2022/04/07 11:09:47;;;;;;;3.53;2.70;;;;;;;;;;5057646;28;20048;-66
2022/04/07 11:12:22;;;;;;;5.43;2.60;;;;;;;;;;5058467;28;20107;-66
2022/04/07 11:14:56;;;;;;;5.15;3.33;;;;;;;;;;5054663;28;20647;-67
2022/04/07 11:17:23;;;;;;;4.50;3.33;;;;;;;;;;5057259;28;20080;-67
2022/04/07 11:19:52;;;;;;;4.88;3.50;;;;;;;;;;5057531;28;20566;-66
2022/04/07 11:22:22;;;;;;;4.25;3.40;;;;;;;;;;5058712;28;20040;-69
2022/04/07 11:24:55;;;;;;;5.72;3.67;;;;;;;;;;5060511;28;20049;-68
2022/04/07 11:27:32;;;;;;;5.85;3.78;;;;;;;;;;5059408;28;20127;-68
2022/04/07 11:30:05;;;;;;;7.38;4.32;;;;;;;;;;5057118;28;20080;-68
2022/04/07 11:32:32;;;;;;;6.63;4.00;;;;;;;;;;5057393;28;20159;-68
2022/04/07 11:35:00;;;;;;;;;;;;;;;;;;5058674;28;20506;-68
2022/04/07 11:37:26;;;;;;;7.60;4.32;;;;;;;;;;5061732;28;19925;-67
2022/04/07 11:39:54;;;;;;;6.00;4.15;;;;;;;;;;5057161;28;20077;-68
2022/04/07 11:42:28;;;;;;;7.97;4.20;;;;;;;;;;5059560;28;20124;-68
2022/04/07 11:44:58;;;;;;;7.43;4.50;;;;;;;;;;5059058;28;20084;-67
2022/04/07 11:47:26;;;;;;;11.07;5.07;;;;;;;;;;5056889;28;20135;-68
2022/04/07 11:50:00;;;;;;;7.63;4.60;;;;;;;;;;5055436;28;20453;-67
2022/04/07 11:52:28;;;;;;;8.40;4.60;;;;;;;;;;5038594;28;20131;-67
2022/04/07 11:54:56;;;;;;;8.30;4.80;;;;;;;;;;5034782;28;20053;-67
2022/04/07 11:57:24;;;;;;;7.35;4.80;;;;;;;;;;5039516;28;20058;-68
2022/04/07 11:59:53;;;;;;;6.80;4.25;;;;;;;;;;5041492;28;20128;-68
2022/04/07 12:02:21;;;;;;;7.75;4.43;;;;;;;;;;5036662;28;20136;-68
2022/04/07 12:04:58;;;;;;;7.72;4.63;;;;;;;;;;5035558;28;20093;-68
2022/04/07 12:07:25;;;;;;;8.20;4.13;;;;;;;;;;5041343;28;20084;-68
2022/04/07 12:09:53;;;;;;;6.30;4.03;;;;;;;;;;5036396;28;20061;-68
2022/04/07 12:12:26;;;;;;;7.65;3.40;;;;;;;;;;5037742;28;20145;-68
2022/04/07 12:14:53;;;;;;;6.05;4.32;;;;;;;;;;5038333;28;20049;-68
2022/04/07 12:17:22;;;;;;;4.68;3.88;;;;;;;;;;5036958;28;20140;-68
2022/04/07 12:19:50;;;;;;;4.40;3.08;;;;;;;;;;5038550;28;20477;-68
2022/04/07 12:22:16;;;;;;;4.97;2.97;;;;;;;;;;5041063;28;20088;-67
2022/04/07 12:24:59;;;;;;;6.63;3.03;;;;;;;;;;5042214;28;20084;-68
2022/04/07 12:27:31;;;;;;;7.00;2.50;;;;;;;;;;5041784;28;20084;-67
2022/04/07 12:29:59;;;;;;;4.05;2.80;;;;;;;;;;5043765;28;20127;-68
2022/04/07 12:32:26;;;;;;;2.83;2.05;;;;;;;;;;5040814;28;20107;-68
2022/04/07 12:34:59;;;;;;;3.33;2.20;;;;;;;;;;5042484;28;20077;-68
2022/04/07 12:37:43;;;;;;;4.10;2.63;;;;;;;;;;5042936;28;20489;-68
2022/04/07 12:40:18;;;;;;;5.75;2.67;;;;;;;;;;5038733;28;20129;-68
2022/04/07 12:42:49;;;;;;;4.90;2.42;;;;;;;;;;5046401;28;20144;-68
2022/04/07 12:45:15;;;;;;;3.70;2.30;;;;;;;;;;5040775;28;20560;-68
2022/04/07 12:48:00;;;;;;;2.60;1.92;;;;;;;;;;5047896;28;20076;-68
2022/04/07 12:50:47;;;;;;;3.85;2.00;;;;;;;;;;5051744;28;20055;-67
2022/04/07 12:53:29;;;;;;;3.33;2.47;;;;;;;;;;5062999;28;20136;-68
2022/04/07 12:55:56;;;;;;;2.97;2.30;;;;;;;;;;5062026;28;20062;-68
2022/04/07 12:58:26;;;;;;;2.33;2.05;;;;;;;;;;5063605;28;20076;-67
2022/04/07 13:01:00;;;;;;;1.85;1.70;;;;;;;;;;5060824;28;20144;-67
2022/04/07 13:03:28;;;;;;;5.93;1.92;;;;;;;;;;5061990;28;20049;-67
2022/04/07 13:05:55;;;;;;;4.13;1.60;;;;;;;;;;5062497;28;20455;-68
2022/04/07 13:08:22;;;;;;;1.73;1.60;;;;;;;;;;5060866;28;20140;-67
2022/04/07 13:10:55;;;;;;;3.72;1.40;;;;;;;;;;5060980;28;20140;-68
2022/04/07 13:13:22;;;;;;;1.42;1.13;;;;;;;;;;5061558;28;20135;-67
2022/04/07 13:15:48;;;;;;;1.42;1.30;;;;;;;;;;5064993;28;20080;-68
2022/04/07 13:18:21;;;;;;;2.53;1.67;;;;;;;;;;5061753;28;20053;-68
2022/04/07 13:20:48;;;;;;;2.63;1.70;;;;;;;;;;5061645;28;20087;-68
2022/04/07 13:23:14;;;;;;;3.05;1.77;;;;;;;;;;5059524;28;20127;-68
2022/04/07 13:25:41;;;;;;;2.30;1.65;;;;;;;;;;5059121;28;20063;-67
2022/04/07 13:28:08;;;;;;;5.53;1.98;;;;;;;;;;5061135;28;20132;-67
2022/04/07 13:30:34;;;;;;;3.17;1.75;;;;;;;;;;5058891;28;20155;-67
2022/04/07 13:33:01;;;;;;;3.03;1.90;;;;;;;;;;5060883;28;20131;-67
2022/04/07 13:35:27;;;;;;;3.83;1.80;;;;;;;;;;5064223;28;20103;-68
2022/04/07 13:37:57;;;;;;;1.95;1.60;;;;;;;;;;5062322;28;20124;-68
2022/04/07 13:40:26;;;;;;;2.67;1.70;;;;;;;;;;5059407;28;20132;-68
2022/04/07 13:42:58;;;;;;;3.30;1.77;;;;;;;;;;5061085;28;20049;-68
2022/04/07 13:45:25;;;;;;;3.23;1.70;;;;;;;;;;5061415;28;20084;-68
2022/04/07 13:47:51;;;;;;;2.50;1.75;;;;;;;;;;5063396;28;20144;-67
2022/04/07 13:50:18;;;;;;;2.50;1.70;;;;;;;;;;5061851;28;20160;-67
2022/04/07 13:52:45;;;;;;;2.23;1.50;;;;;;;;;;5061331;28;20449;-67
2022/04/07 13:55:11;;;;;;;1.85;1.48;;;;;;;;;;5062850;28;20128;-67
2022/04/07 13:57:37;;;;;;;3.38;1.67;;;;;;;;;;5060379;28;20484;-67
2022/04/07 14:00:06;;;;;;;1.90;1.45;;;;;;;;;;5063746;28;20578;-68
2022/04/07 14:02:32;;;;;;;3.17;1.70;;;;;;;;;;5059950;28;20037;-67
2022/04/07 14:04:59;;;;;;;4.93;1.48;;;;;;;;;;5062494;28;20055;-67
2022/04/07 14:07:26;;;;;;;1.50;1.40;;;;;;;;;;5060807;28;20098;-68
2022/04/07 14:09:52;;;;;;;1.90;1.60;;;;;;;;;;5062159;28;20139;-68
2022/04/07 14:12:19;;;;;;;2.60;1.27;;;;;;;;;;5057233;28;20084;-68
2022/04/07 14:14:53;;;;;;;4.50;1.40;;;;;;;;;;5060438;28;20466;-68
2022/04/07 14:17:26;;;;;;;1.40;1.30;;;;;;;;;;5060099;28;20133;-67
2022/04/07 14:19:59;;;;;;;1.60;1.38;;;;;;;;;;5061782;28;20080;-68
2022/04/07 14:22:26;;;;;;;2.65;1.58;;;;;;;;;;5060007;28;20128;-68
2022/04/07 14:24:52;;;;;;;1.92;1.58;;;;;;;;;;5057363;28;20127;-68
2022/04/07 14:27:19;;;;;;;3.38;1.50;;;;;;;;;;5060678;28;20080;-68
2022/04/07 14:29:46;;;;;;;2.15;1.40;;;;;;;;;;5063043;28;20132;-67
2022/04/07 14:32:12;;;;;;;1.67;1.30;;;;;;;;;;5060695;28;20049;-68
2022/04/07 14:34:45;;;;;;;2.28;1.25;;;;;;;;;;5056650;28;20051;-68
2022/04/07 14:37:18;;;;;;;2.00;1.38;;;;;;;;;;5058155;28;20248;-68
2022/04/07 14:39:44;;;;;;;2.13;1.65;;;;;;;;;;5060788;28;20136;-68
2022/04/07 14:42:12;;;;;;;2.20;1.35;;;;;;;;;;5059312;28;20079;-68
2022/04/07 14:44:39;;;;;;;2.38;1.40;;;;;;;;;;5060697;28;20191;-68
2022/04/07 14:47:07;;;;;;;2.20;1.17;;;;;;;;;;5059353;28;20131;-68
2022/04/07 14:49:35;;;;;;;2.63;1.38;;;;;;;;;;5057993;28;20092;-68